Terminal Aerodrome Forecast
Issued by NWS

Home | Current Version | Previous Version | Text Only | Print | Product List | Glossary On
Versions: 1 2 3 4 5 6 7 8 9 10 11 12 13 14 15 16 17
000
FTUS43 KEAX 291700
TAFSTJ
TAF
KSTJ 291731Z 2918/3018 VRB04KT P6SM SCT050
     FM301000 00000KT 2SM BR SCT003
     FM301200 02004KT P6SM SCT250=

USA.gov is the U.S. government's official web portal to all federal, state and local government web resources and services.